sensor_id;sensor_type;location;lat;lon;timestamp;P1;durP1;ratioP1;P2;durP2;ratioP2
6671;SDS011;3372;48.690;12.362;2022-08-19T00:01:32;27.93;;;24.90;;
6671;SDS011;3372;48.690;12.362;2022-08-19T00:04:02;27.60;;;23.00;;
6671;SDS011;3372;48.690;12.362;2022-08-19T00:06:29;27.70;;;24.30;;
6671;SDS011;3372;48.690;12.362;2022-08-19T00:08:56;27.53;;;24.53;;
6671;SDS011;3372;48.690;12.362;2022-08-19T00:11:23;29.40;;;24.73;;
6671;SDS011;3372;48.690;12.362;2022-08-19T00:13:49;30.50;;;24.90;;
6671;SDS011;3372;48.690;12.362;2022-08-19T00:16:18;28.53;;;24.93;;
6671;SDS011;3372;48.690;12.362;2022-08-19T00:18:45;29.27;;;24.57;;
6671;SDS011;3372;48.690;12.362;2022-08-19T00:21:11;27.63;;;24.23;;
6671;SDS011;3372;48.690;12.362;2022-08-19T00:23:37;29.53;;;25.00;;
6671;SDS011;3372;48.690;12.362;2022-08-19T00:26:03;27.80;;;23.10;;
6671;SDS011;3372;48.690;12.362;2022-08-19T00:28:29;28.20;;;24.23;;
6671;SDS011;3372;48.690;12.362;2022-08-19T00:30:55;27.73;;;24.37;;
6671;SDS011;3372;48.690;12.362;2022-08-19T00:33:21;29.40;;;25.00;;
6671;SDS011;3372;48.690;12.362;2022-08-19T00:35:47;27.90;;;24.90;;
6671;SDS011;3372;48.690;12.362;2022-08-19T00:38:12;25.57;;;22.77;;
6671;SDS011;3372;48.690;12.362;2022-08-19T00:40:38;27.20;;;21.40;;
6671;SDS011;3372;48.690;12.362;2022-08-19T00:43:08;25.47;;;22.67;;
6671;SDS011;3372;48.690;12.362;2022-08-19T00:45:38;26.90;;;23.10;;
6671;SDS011;3372;48.690;12.362;2022-08-19T00:48:07;25.83;;;22.60;;
6671;SDS011;3372;48.690;12.362;2022-08-19T00:50:33;31.40;;;23.13;;
6671;SDS011;3372;48.690;12.362;2022-08-19T00:52:59;26.17;;;22.47;;
6671;SDS011;3372;48.690;12.362;2022-08-19T00:55:29;26.10;;;22.07;;
6671;SDS011;3372;48.690;12.362;2022-08-19T00:57:59;27.47;;;24.47;;
6671;SDS011;3372;48.690;12.362;2022-08-19T01:00:32;30.03;;;24.97;;
6671;SDS011;3372;48.690;12.362;2022-08-19T01:03:01;26.50;;;23.07;;
6671;SDS011;3372;48.690;12.362;2022-08-19T01:05:28;29.83;;;25.33;;
6671;SDS011;3372;48.690;12.362;2022-08-19T01:07:54;26.40;;;23.20;;
6671;SDS011;3372;48.690;12.362;2022-08-19T01:10:25;25.77;;;22.53;;
6671;SDS011;3372;48.690;12.362;2022-08-19T01:12:54;27.20;;;24.17;;
6671;SDS011;3372;48.690;12.362;2022-08-19T01:15:22;31.23;;;26.20;;
6671;SDS011;3372;48.690;12.362;2022-08-19T01:17:53;28.50;;;23.47;;
6671;SDS011;3372;48.690;12.362;2022-08-19T01:20:21;32.30;;;26.73;;
6671;SDS011;3372;48.690;12.362;2022-08-19T01:22:49;28.77;;;25.40;;
6671;SDS011;3372;48.690;12.362;2022-08-19T01:25:19;31.10;;;26.10;;
6671;SDS011;3372;48.690;12.362;2022-08-19T01:27:48;30.87;;;25.87;;
6671;SDS011;3372;48.690;12.362;2022-08-19T01:30:16;29.10;;;24.87;;
6671;SDS011;3372;48.690;12.362;2022-08-19T01:32:45;28.93;;;24.90;;
6671;SDS011;3372;48.690;12.362;2022-08-19T01:35:12;30.43;;;24.20;;
6671;SDS011;3372;48.690;12.362;2022-08-19T01:38:22;31.13;;;25.90;;
6671;SDS011;3372;48.690;12.362;2022-08-19T01:40:32;31.23;;;26.40;;
6671;SDS011;3372;48.690;12.362;2022-08-19T01:43:00;28.57;;;25.50;;
6671;SDS011;3372;48.690;12.362;2022-08-19T01:45:28;28.60;;;24.00;;
6671;SDS011;3372;48.690;12.362;2022-08-19T01:47:56;30.33;;;25.37;;
6671;SDS011;3372;48.690;12.362;2022-08-19T01:50:23;29.53;;;24.37;;
6671;SDS011;3372;48.690;12.362;2022-08-19T01:52:49;26.80;;;23.37;;
6671;SDS011;3372;48.690;12.362;2022-08-19T01:55:15;31.10;;;25.93;;
6671;SDS011;3372;48.690;12.362;2022-08-19T01:57:46;27.43;;;23.30;;
6671;SDS011;3372;48.690;12.362;2022-08-19T02:00:16;26.30;;;22.90;;
6671;SDS011;3372;48.690;12.362;2022-08-19T02:02:43;26.90;;;22.50;;
6671;SDS011;3372;48.690;12.362;2022-08-19T02:05:10;27.93;;;23.10;;
6671;SDS011;3372;48.690;12.362;2022-08-19T02:07:36;28.30;;;22.90;;
6671;SDS011;3372;48.690;12.362;2022-08-19T02:10:07;28.30;;;23.90;;
6671;SDS011;3372;48.690;12.362;2022-08-19T02:12:35;26.77;;;23.70;;
6671;SDS011;3372;48.690;12.362;2022-08-19T02:15:01;29.80;;;23.43;;
6671;SDS011;3372;48.690;12.362;2022-08-19T02:17:28;30.57;;;23.27;;
6671;SDS011;3372;48.690;12.362;2022-08-19T02:19:55;25.67;;;22.40;;
6671;SDS011;3372;48.690;12.362;2022-08-19T02:22:21;27.90;;;23.50;;
6671;SDS011;3372;48.690;12.362;2022-08-19T02:24:49;27.20;;;22.80;;
6671;SDS011;3372;48.690;12.362;2022-08-19T02:27:14;27.03;;;21.53;;
6671;SDS011;3372;48.690;12.362;2022-08-19T02:29:40;23.73;;;21.03;;
6671;SDS011;3372;48.690;12.362;2022-08-19T02:32:06;26.37;;;22.03;;
6671;SDS011;3372;48.690;12.362;2022-08-19T02:34:32;26.97;;;21.10;;
6671;SDS011;3372;48.690;12.362;2022-08-19T02:36:58;26.80;;;22.77;;
6671;SDS011;3372;48.690;12.362;2022-08-19T02:39:24;30.87;;;24.60;;
6671;SDS011;3372;48.690;12.362;2022-08-19T02:41:49;28.07;;;23.80;;
6671;SDS011;3372;48.690;12.362;2022-08-19T02:44:16;29.00;;;24.10;;
6671;SDS011;3372;48.690;12.362;2022-08-19T02:46:44;35.13;;;24.60;;
6671;SDS011;3372;48.690;12.362;2022-08-19T02:49:11;33.63;;;27.50;;
6671;SDS011;3372;48.690;12.362;2022-08-19T02:51:38;34.83;;;27.33;;
6671;SDS011;3372;48.690;12.362;2022-08-19T02:54:06;31.40;;;26.50;;
6671;SDS011;3372;48.690;12.362;2022-08-19T02:56:37;27.50;;;23.00;;
6671;SDS011;3372;48.690;12.362;2022-08-19T02:59:04;29.00;;;24.90;;
6671;SDS011;3372;48.690;12.362;2022-08-19T03:01:34;32.07;;;25.07;;
6671;SDS011;3372;48.690;12.362;2022-08-19T03:04:01;30.03;;;24.47;;
6671;SDS011;3372;48.690;12.362;2022-08-19T03:06:29;28.87;;;24.53;;
6671;SDS011;3372;48.690;12.362;2022-08-19T03:08:55;24.33;;;21.70;;
6671;SDS011;3372;48.690;12.362;2022-08-19T03:11:28;30.40;;;24.00;;
6671;SDS011;3372;48.690;12.362;2022-08-19T03:13:56;26.77;;;23.53;;
6671;SDS011;3372;48.690;12.362;2022-08-19T03:16:23;32.33;;;26.93;;
6671;SDS011;3372;48.690;12.362;2022-08-19T03:18:51;30.63;;;24.33;;
6671;SDS011;3372;48.690;12.362;2022-08-19T03:21:20;30.00;;;26.20;;
6671;SDS011;3372;48.690;12.362;2022-08-19T03:23:50;31.60;;;25.70;;
6671;SDS011;3372;48.690;12.362;2022-08-19T03:26:19;30.23;;;24.80;;
6671;SDS011;3372;48.690;12.362;2022-08-19T03:28:44;29.83;;;24.70;;
6671;SDS011;3372;48.690;12.362;2022-08-19T03:31:15;33.03;;;26.27;;
6671;SDS011;3372;48.690;12.362;2022-08-19T03:33:42;32.70;;;25.63;;
6671;SDS011;3372;48.690;12.362;2022-08-19T03:38:40;34.43;;;27.90;;
6671;SDS011;3372;48.690;12.362;2022-08-19T03:41:10;32.43;;;26.70;;
6671;SDS011;3372;48.690;12.362;2022-08-19T03:43:37;34.00;;;27.93;;
6671;SDS011;3372;48.690;12.362;2022-08-19T03:46:09;33.67;;;27.33;;
6671;SDS011;3372;48.690;12.362;2022-08-19T03:48:37;30.47;;;24.67;;
6671;SDS011;3372;48.690;12.362;2022-08-19T03:51:04;34.70;;;28.13;;
6671;SDS011;3372;48.690;12.362;2022-08-19T03:53:32;38.13;;;28.20;;
6671;SDS011;3372;48.690;12.362;2022-08-19T03:55:59;35.97;;;28.10;;
6671;SDS011;3372;48.690;12.362;2022-08-19T03:58:26;40.03;;;29.40;;
6671;SDS011;3372;48.690;12.362;2022-08-19T04:00:53;36.00;;;28.90;;
6671;SDS011;3372;48.690;12.362;2022-08-19T04:03:20;35.43;;;28.17;;
6671;SDS011;3372;48.690;12.362;2022-08-19T04:05:46;38.43;;;28.10;;
6671;SDS011;3372;48.690;12.362;2022-08-19T04:08:13;38.60;;;28.27;;
6671;SDS011;3372;48.690;12.362;2022-08-19T04:10:40;40.90;;;30.40;;
6671;SDS011;3372;48.690;12.362;2022-08-19T04:13:06;46.43;;;31.40;;
6671;SDS011;3372;48.690;12.362;2022-08-19T04:15:33;40.73;;;30.77;;
6671;SDS011;3372;48.690;12.362;2022-08-19T04:18:06;43.80;;;29.97;;
6671;SDS011;3372;48.690;12.362;2022-08-19T04:20:43;44.63;;;31.67;;
6671;SDS011;3372;48.690;12.362;2022-08-19T04:23:13;39.07;;;29.07;;
6671;SDS011;3372;48.690;12.362;2022-08-19T04:25:40;40.20;;;30.53;;
6671;SDS011;3372;48.690;12.362;2022-08-19T04:28:08;39.40;;;29.83;;
6671;SDS011;3372;48.690;12.362;2022-08-19T04:30:42;35.03;;;25.80;;
6671;SDS011;3372;48.690;12.362;2022-08-19T04:33:10;30.53;;;22.70;;
6671;SDS011;3372;48.690;12.362;2022-08-19T04:35:41;24.53;;;20.57;;
6671;SDS011;3372;48.690;12.362;2022-08-19T04:38:08;24.87;;;20.43;;
6671;SDS011;3372;48.690;12.362;2022-08-19T04:40:46;22.07;;;18.60;;
6671;SDS011;3372;48.690;12.362;2022-08-19T04:43:31;20.93;;;18.03;;
6671;SDS011;3372;48.690;12.362;2022-08-19T04:45:58;25.27;;;18.87;;
6671;SDS011;3372;48.690;12.362;2022-08-19T04:48:30;24.83;;;20.50;;
6671;SDS011;3372;48.690;12.362;2022-08-19T04:50:56;25.60;;;20.00;;
6671;SDS011;3372;48.690;12.362;2022-08-19T04:53:23;25.07;;;20.57;;
6671;SDS011;3372;48.690;12.362;2022-08-19T04:55:50;21.60;;;19.17;;
6671;SDS011;3372;48.690;12.362;2022-08-19T04:58:16;27.30;;;19.73;;
6671;SDS011;3372;48.690;12.362;2022-08-19T05:00:42;23.67;;;19.43;;
6671;SDS011;3372;48.690;12.362;2022-08-19T05:03:08;24.70;;;19.20;;
6671;SDS011;3372;48.690;12.362;2022-08-19T05:05:37;23.90;;;19.20;;
6671;SDS011;3372;48.690;12.362;2022-08-19T05:08:06;25.17;;;20.63;;
6671;SDS011;3372;48.690;12.362;2022-08-19T05:10:35;26.30;;;20.93;;
6671;SDS011;3372;48.690;12.362;2022-08-19T05:13:01;23.03;;;20.17;;
6671;SDS011;3372;48.690;12.362;2022-08-19T05:15:27;28.03;;;20.67;;
6671;SDS011;3372;48.690;12.362;2022-08-19T05:17:53;25.60;;;19.60;;
6671;SDS011;3372;48.690;12.362;2022-08-19T05:20:37;24.40;;;20.13;;
6671;SDS011;3372;48.690;12.362;2022-08-19T05:23:22;24.23;;;19.27;;
6671;SDS011;3372;48.690;12.362;2022-08-19T05:25:47;27.23;;;22.63;;
6671;SDS011;3372;48.690;12.362;2022-08-19T05:28:13;25.63;;;20.27;;
6671;SDS011;3372;48.690;12.362;2022-08-19T05:30:38;25.90;;;21.73;;
6671;SDS011;3372;48.690;12.362;2022-08-19T05:33:06;25.43;;;20.60;;
6671;SDS011;3372;48.690;12.362;2022-08-19T05:35:36;24.50;;;20.37;;
6671;SDS011;3372;48.690;12.362;2022-08-19T05:38:04;25.37;;;20.60;;
6671;SDS011;3372;48.690;12.362;2022-08-19T05:40:36;23.90;;;20.07;;
6671;SDS011;3372;48.690;12.362;2022-08-19T05:43:04;29.20;;;23.00;;
6671;SDS011;3372;48.690;12.362;2022-08-19T05:45:30;30.50;;;24.00;;
6671;SDS011;3372;48.690;12.362;2022-08-19T05:47:56;33.40;;;26.07;;
6671;SDS011;3372;48.690;12.362;2022-08-19T05:50:23;28.10;;;23.43;;
6671;SDS011;3372;48.690;12.362;2022-08-19T05:52:50;29.93;;;22.03;;
6671;SDS011;3372;48.690;12.362;2022-08-19T05:55:16;30.63;;;25.20;;
6671;SDS011;3372;48.690;12.362;2022-08-19T05:57:42;30.27;;;24.23;;
6671;SDS011;3372;48.690;12.362;2022-08-19T06:00:07;29.03;;;22.80;;
6671;SDS011;3372;48.690;12.362;2022-08-19T06:02:35;33.40;;;24.53;;
6671;SDS011;3372;48.690;12.362;2022-08-19T06:05:02;27.83;;;23.03;;
6671;SDS011;3372;48.690;12.362;2022-08-19T06:07:30;32.07;;;23.50;;
6671;SDS011;3372;48.690;12.362;2022-08-19T06:09:56;26.67;;;22.37;;
6671;SDS011;3372;48.690;12.362;2022-08-19T06:12:22;29.27;;;23.80;;
6671;SDS011;3372;48.690;12.362;2022-08-19T06:14:53;28.27;;;22.23;;
6671;SDS011;3372;48.690;12.362;2022-08-19T06:17:19;26.10;;;21.00;;
6671;SDS011;3372;48.690;12.362;2022-08-19T06:19:50;25.53;;;20.90;;
6671;SDS011;3372;48.690;12.362;2022-08-19T06:22:15;28.77;;;22.40;;
6671;SDS011;3372;48.690;12.362;2022-08-19T06:24:41;26.10;;;21.67;;
6671;SDS011;3372;48.690;12.362;2022-08-19T06:27:07;29.90;;;22.57;;
6671;SDS011;3372;48.690;12.362;2022-08-19T06:29:33;28.83;;;21.93;;
6671;SDS011;3372;48.690;12.362;2022-08-19T06:32:00;30.40;;;23.57;;
6671;SDS011;3372;48.690;12.362;2022-08-19T06:34:27;27.80;;;21.43;;
6671;SDS011;3372;48.690;12.362;2022-08-19T06:36:55;29.80;;;23.80;;
6671;SDS011;3372;48.690;12.362;2022-08-19T06:39:23;31.77;;;25.23;;
6671;SDS011;3372;48.690;12.362;2022-08-19T06:41:51;33.00;;;24.80;;
6671;SDS011;3372;48.690;12.362;2022-08-19T06:44:22;34.10;;;27.27;;
6671;SDS011;3372;48.690;12.362;2022-08-19T06:46:50;34.60;;;26.87;;
6671;SDS011;3372;48.690;12.362;2022-08-19T06:49:16;37.07;;;28.17;;
6671;SDS011;3372;48.690;12.362;2022-08-19T06:51:43;31.97;;;24.60;;
6671;SDS011;3372;48.690;12.362;2022-08-19T06:54:10;32.83;;;25.50;;
6671;SDS011;3372;48.690;12.362;2022-08-19T06:56:35;38.10;;;28.73;;
6671;SDS011;3372;48.690;12.362;2022-08-19T06:59:04;42.30;;;32.40;;
6671;SDS011;3372;48.690;12.362;2022-08-19T07:01:38;39.70;;;29.13;;
6671;SDS011;3372;48.690;12.362;2022-08-19T07:04:12;38.80;;;28.40;;
6671;SDS011;3372;48.690;12.362;2022-08-19T07:06:40;34.83;;;27.27;;
6671;SDS011;3372;48.690;12.362;2022-08-19T07:09:07;41.37;;;29.40;;
6671;SDS011;3372;48.690;12.362;2022-08-19T07:11:34;40.87;;;31.30;;
6671;SDS011;3372;48.690;12.362;2022-08-19T07:14:00;43.23;;;32.70;;
6671;SDS011;3372;48.690;12.362;2022-08-19T07:16:26;39.60;;;30.57;;
6671;SDS011;3372;48.690;12.362;2022-08-19T07:18:53;39.33;;;30.87;;
6671;SDS011;3372;48.690;12.362;2022-08-19T07:21:23;36.83;;;28.33;;
6671;SDS011;3372;48.690;12.362;2022-08-19T07:23:54;37.73;;;28.63;;
6671;SDS011;3372;48.690;12.362;2022-08-19T07:26:22;51.43;;;37.57;;
6671;SDS011;3372;48.690;12.362;2022-08-19T07:28:52;44.13;;;33.73;;
6671;SDS011;3372;48.690;12.362;2022-08-19T07:31:20;37.53;;;28.60;;
6671;SDS011;3372;48.690;12.362;2022-08-19T07:33:48;39.43;;;30.13;;
6671;SDS011;3372;48.690;12.362;2022-08-19T07:36:16;41.00;;;30.87;;
6671;SDS011;3372;48.690;12.362;2022-08-19T07:38:45;36.57;;;28.70;;
6671;SDS011;3372;48.690;12.362;2022-08-19T07:41:14;40.63;;;30.80;;
6671;SDS011;3372;48.690;12.362;2022-08-19T07:43:41;39.80;;;31.27;;
6671;SDS011;3372;48.690;12.362;2022-08-19T07:46:08;36.50;;;28.60;;
6671;SDS011;3372;48.690;12.362;2022-08-19T07:48:35;37.13;;;28.50;;
6671;SDS011;3372;48.690;12.362;2022-08-19T07:51:02;43.17;;;30.63;;
6671;SDS011;3372;48.690;12.362;2022-08-19T07:53:30;38.00;;;29.07;;
6671;SDS011;3372;48.690;12.362;2022-08-19T07:55:57;40.27;;;31.20;;
6671;SDS011;3372;48.690;12.362;2022-08-19T07:58:30;41.20;;;31.40;;
6671;SDS011;3372;48.690;12.362;2022-08-19T08:01:00;40.40;;;31.80;;
6671;SDS011;3372;48.690;12.362;2022-08-19T08:03:26;40.47;;;30.90;;
6671;SDS011;3372;48.690;12.362;2022-08-19T08:06:12;41.93;;;32.90;;
6671;SDS011;3372;48.690;12.362;2022-08-19T08:08:57;40.30;;;32.10;;
6671;SDS011;3372;48.690;12.362;2022-08-19T08:11:43;40.20;;;30.67;;
6671;SDS011;3372;48.690;12.362;2022-08-19T08:14:15;40.40;;;30.10;;
6671;SDS011;3372;48.690;12.362;2022-08-19T08:16:43;36.00;;;27.40;;
6671;SDS011;3372;48.690;12.362;2022-08-19T08:19:10;38.47;;;28.80;;
6671;SDS011;3372;48.690;12.362;2022-08-19T08:21:39;37.63;;;29.00;;
6671;SDS011;3372;48.690;12.362;2022-08-19T08:24:06;40.97;;;30.80;;
6671;SDS011;3372;48.690;12.362;2022-08-19T08:26:31;36.80;;;27.57;;
6671;SDS011;3372;48.690;12.362;2022-08-19T08:28:57;35.83;;;27.20;;
6671;SDS011;3372;48.690;12.362;2022-08-19T08:31:23;34.67;;;26.80;;
6671;SDS011;3372;48.690;12.362;2022-08-19T08:33:49;34.10;;;26.37;;
6671;SDS011;3372;48.690;12.362;2022-08-19T08:36:14;29.93;;;24.17;;
6671;SDS011;3372;48.690;12.362;2022-08-19T08:38:41;32.60;;;26.27;;
6671;SDS011;3372;48.690;12.362;2022-08-19T08:41:26;32.00;;;26.50;;
6671;SDS011;3372;48.690;12.362;2022-08-19T08:44:02;30.87;;;24.90;;
6671;SDS011;3372;48.690;12.362;2022-08-19T08:46:37;34.17;;;26.57;;
6671;SDS011;3372;48.690;12.362;2022-08-19T08:49:15;31.10;;;25.10;;
6671;SDS011;3372;48.690;12.362;2022-08-19T08:52:00;33.97;;;26.53;;
6671;SDS011;3372;48.690;12.362;2022-08-19T08:54:37;27.87;;;22.30;;
6671;SDS011;3372;48.690;12.362;2022-08-19T08:57:20;25.63;;;21.37;;
6671;SDS011;3372;48.690;12.362;2022-08-19T09:00:02;23.90;;;21.20;;
6671;SDS011;3372;48.690;12.362;2022-08-19T09:02:31;22.17;;;18.37;;
6671;SDS011;3372;48.690;12.362;2022-08-19T09:04:57;24.07;;;20.50;;
6671;SDS011;3372;48.690;12.362;2022-08-19T09:15:43;24.17;;;18.93;;
6671;SDS011;3372;48.690;12.362;2022-08-19T09:18:12;21.23;;;18.77;;
6671;SDS011;3372;48.690;12.362;2022-08-19T09:20:39;21.13;;;18.83;;
6671;SDS011;3372;48.690;12.362;2022-08-19T09:23:04;25.87;;;19.73;;
6671;SDS011;3372;48.690;12.362;2022-08-19T09:25:30;23.93;;;19.67;;
6671;SDS011;3372;48.690;12.362;2022-08-19T09:27:59;24.70;;;20.83;;
6671;SDS011;3372;48.690;12.362;2022-08-19T09:30:33;26.37;;;21.67;;
6671;SDS011;3372;48.690;12.362;2022-08-19T09:33:06;20.63;;;18.40;;
6671;SDS011;3372;48.690;12.362;2022-08-19T09:35:32;21.17;;;18.27;;
6671;SDS011;3372;48.690;12.362;2022-08-19T09:37:59;25.20;;;19.00;;
6671;SDS011;3372;48.690;12.362;2022-08-19T09:40:29;23.13;;;19.73;;
6671;SDS011;3372;48.690;12.362;2022-08-19T09:42:55;25.33;;;20.03;;
6671;SDS011;3372;48.690;12.362;2022-08-19T09:45:22;23.43;;;20.13;;
6671;SDS011;3372;48.690;12.362;2022-08-19T09:47:51;22.20;;;18.93;;
6671;SDS011;3372;48.690;12.362;2022-08-19T09:50:18;21.83;;;18.00;;
6671;SDS011;3372;48.690;12.362;2022-08-19T09:52:44;19.00;;;16.87;;
6671;SDS011;3372;48.690;12.362;2022-08-19T09:55:11;22.30;;;19.07;;
6671;SDS011;3372;48.690;12.362;2022-08-19T09:57:37;22.23;;;17.83;;
6671;SDS011;3372;48.690;12.362;2022-08-19T10:00:05;20.50;;;18.30;;
6671;SDS011;3372;48.690;12.362;2022-08-19T10:02:33;23.73;;;19.30;;
6671;SDS011;3372;48.690;12.362;2022-08-19T10:05:01;20.23;;;17.93;;
6671;SDS011;3372;48.690;12.362;2022-08-19T10:07:45;23.17;;;18.67;;
6671;SDS011;3372;48.690;12.362;2022-08-19T10:10:11;21.60;;;18.33;;
6671;SDS011;3372;48.690;12.362;2022-08-19T10:12:36;23.03;;;19.57;;
6671;SDS011;3372;48.690;12.362;2022-08-19T10:15:03;24.87;;;19.97;;
6671;SDS011;3372;48.690;12.362;2022-08-19T10:17:31;23.60;;;20.57;;
6671;SDS011;3372;48.690;12.362;2022-08-19T10:20:00;24.53;;;21.57;;
6671;SDS011;3372;48.690;12.362;2022-08-19T10:22:27;26.97;;;21.13;;
6671;SDS011;3372;48.690;12.362;2022-08-19T10:24:53;29.80;;;23.30;;
6671;SDS011;3372;48.690;12.362;2022-08-19T10:27:19;28.53;;;23.43;;
6671;SDS011;3372;48.690;12.362;2022-08-19T10:29:45;30.27;;;22.63;;
6671;SDS011;3372;48.690;12.362;2022-08-19T10:32:10;24.90;;;21.63;;
6671;SDS011;3372;48.690;12.362;2022-08-19T10:34:36;24.37;;;21.33;;
6671;SDS011;3372;48.690;12.362;2022-08-19T10:37:03;25.70;;;22.90;;
6671;SDS011;3372;48.690;12.362;2022-08-19T10:39:31;25.63;;;21.90;;
6671;SDS011;3372;48.690;12.362;2022-08-19T10:41:58;26.90;;;23.80;;
6671;SDS011;3372;48.690;12.362;2022-08-19T10:44:23;28.77;;;25.20;;
6671;SDS011;3372;48.690;12.362;2022-08-19T10:46:49;24.27;;;21.43;;
6671;SDS011;3372;48.690;12.362;2022-08-19T10:49:16;23.93;;;20.70;;
6671;SDS011;3372;48.690;12.362;2022-08-19T10:51:44;27.73;;;23.07;;
6671;SDS011;3372;48.690;12.362;2022-08-19T10:54:28;26.13;;;22.40;;
6671;SDS011;3372;48.690;12.362;2022-08-19T10:57:15;24.23;;;21.70;;
6671;SDS011;3372;48.690;12.362;2022-08-19T10:59:41;28.87;;;23.73;;
6671;SDS011;3372;48.690;12.362;2022-08-19T11:02:07;25.70;;;22.10;;
6671;SDS011;3372;48.690;12.362;2022-08-19T11:04:35;28.90;;;23.93;;
6671;SDS011;3372;48.690;12.362;2022-08-19T11:07:05;28.90;;;24.80;;
6671;SDS011;3372;48.690;12.362;2022-08-19T11:09:31;28.00;;;22.90;;
6671;SDS011;3372;48.690;12.362;2022-08-19T11:12:02;32.67;;;27.70;;
6671;SDS011;3372;48.690;12.362;2022-08-19T11:14:28;28.67;;;24.50;;
6671;SDS011;3372;48.690;12.362;2022-08-19T11:16:56;30.10;;;24.80;;
6671;SDS011;3372;48.690;12.362;2022-08-19T11:19:22;27.70;;;24.50;;
6671;SDS011;3372;48.690;12.362;2022-08-19T11:21:49;28.30;;;23.00;;
6671;SDS011;3372;48.690;12.362;2022-08-19T11:24:20;32.83;;;26.67;;
6671;SDS011;3372;48.690;12.362;2022-08-19T11:26:48;30.37;;;25.93;;
6671;SDS011;3372;48.690;12.362;2022-08-19T11:29:16;27.97;;;23.33;;
6671;SDS011;3372;48.690;12.362;2022-08-19T11:31:44;31.33;;;25.40;;
6671;SDS011;3372;48.690;12.362;2022-08-19T11:34:17;32.67;;;27.00;;
6671;SDS011;3372;48.690;12.362;2022-08-19T11:36:46;31.30;;;24.60;;
6671;SDS011;3372;48.690;12.362;2022-08-19T11:39:14;34.97;;;29.13;;
6671;SDS011;3372;48.690;12.362;2022-08-19T11:41:41;33.53;;;27.90;;
6671;SDS011;3372;48.690;12.362;2022-08-19T11:44:07;30.27;;;24.53;;
6671;SDS011;3372;48.690;12.362;2022-08-19T11:46:33;30.73;;;25.93;;
6671;SDS011;3372;48.690;12.362;2022-08-19T11:49:01;32.20;;;27.17;;
6671;SDS011;3372;48.690;12.362;2022-08-19T11:51:30;28.20;;;25.13;;
6671;SDS011;3372;48.690;12.362;2022-08-19T11:53:57;33.17;;;28.20;;
6671;SDS011;3372;48.690;12.362;2022-08-19T11:56:24;29.50;;;24.80;;
6671;SDS011;3372;48.690;12.362;2022-08-19T11:58:51;29.93;;;25.63;;
6671;SDS011;3372;48.690;12.362;2022-08-19T12:01:18;29.93;;;25.00;;
6671;SDS011;3372;48.690;12.362;2022-08-19T12:03:47;26.90;;;23.40;;
6671;SDS011;3372;48.690;12.362;2022-08-19T12:06:15;30.87;;;25.70;;
6671;SDS011;3372;48.690;12.362;2022-08-19T12:08:48;28.70;;;24.60;;
6671;SDS011;3372;48.690;12.362;2022-08-19T12:11:14;32.27;;;26.63;;
6671;SDS011;3372;48.690;12.362;2022-08-19T12:13:40;31.97;;;26.60;;
6671;SDS011;3372;48.690;12.362;2022-08-19T12:16:10;30.63;;;24.77;;
6671;SDS011;3372;48.690;12.362;2022-08-19T12:18:40;120.37;;;78.03;;
6671;SDS011;3372;48.690;12.362;2022-08-19T12:21:10;260.00;;;131.40;;
6671;SDS011;3372;48.690;12.362;2022-08-19T12:23:38;78.83;;;49.70;;
6671;SDS011;3372;48.690;12.362;2022-08-19T12:26:05;40.53;;;30.83;;
6671;SDS011;3372;48.690;12.362;2022-08-19T12:28:30;32.03;;;24.60;;
6671;SDS011;3372;48.690;12.362;2022-08-19T12:30:56;67.90;;;51.33;;
6671;SDS011;3372;48.690;12.362;2022-08-19T12:33:22;46.17;;;37.97;;
6671;SDS011;3372;48.690;12.362;2022-08-19T12:35:50;44.03;;;36.77;;
6671;SDS011;3372;48.690;12.362;2022-08-19T12:38:17;29.53;;;26.00;;
6671;SDS011;3372;48.690;12.362;2022-08-19T12:40:46;29.20;;;23.70;;
6671;SDS011;3372;48.690;12.362;2022-08-19T12:43:13;24.80;;;21.17;;
6671;SDS011;3372;48.690;12.362;2022-08-19T12:45:40;29.73;;;25.23;;
6671;SDS011;3372;48.690;12.362;2022-08-19T12:48:07;32.63;;;25.97;;
6671;SDS011;3372;48.690;12.362;2022-08-19T12:50:33;32.43;;;26.07;;
6671;SDS011;3372;48.690;12.362;2022-08-19T12:52:59;29.17;;;23.50;;
6671;SDS011;3372;48.690;12.362;2022-08-19T12:55:24;29.10;;;24.87;;
6671;SDS011;3372;48.690;12.362;2022-08-19T12:57:50;29.63;;;26.43;;
6671;SDS011;3372;48.690;12.362;2022-08-19T13:00:17;29.93;;;26.80;;
6671;SDS011;3372;48.690;12.362;2022-08-19T13:02:46;28.13;;;23.97;;
6671;SDS011;3372;48.690;12.362;2022-08-19T13:05:17;27.20;;;23.97;;
6671;SDS011;3372;48.690;12.362;2022-08-19T13:07:48;29.47;;;24.53;;
6671;SDS011;3372;48.690;12.362;2022-08-19T13:10:17;27.60;;;24.47;;
6671;SDS011;3372;48.690;12.362;2022-08-19T13:12:46;26.13;;;23.30;;
6671;SDS011;3372;48.690;12.362;2022-08-19T13:15:15;26.17;;;22.50;;
6671;SDS011;3372;48.690;12.362;2022-08-19T13:17:44;24.70;;;21.20;;
6671;SDS011;3372;48.690;12.362;2022-08-19T13:20:10;27.40;;;23.53;;
6671;SDS011;3372;48.690;12.362;2022-08-19T13:22:36;26.37;;;22.77;;
6671;SDS011;3372;48.690;12.362;2022-08-19T13:25:05;23.70;;;21.20;;
6671;SDS011;3372;48.690;12.362;2022-08-19T13:27:32;25.13;;;20.67;;
6671;SDS011;3372;48.690;12.362;2022-08-19T13:29:57;25.87;;;21.60;;
6671;SDS011;3372;48.690;12.362;2022-08-19T13:32:43;25.63;;;21.63;;
6671;SDS011;3372;48.690;12.362;2022-08-19T13:35:27;21.90;;;19.60;;
6671;SDS011;3372;48.690;12.362;2022-08-19T13:37:52;24.83;;;22.17;;
6671;SDS011;3372;48.690;12.362;2022-08-19T13:40:19;25.70;;;21.63;;
6671;SDS011;3372;48.690;12.362;2022-08-19T13:42:49;22.83;;;20.33;;
6671;SDS011;3372;48.690;12.362;2022-08-19T13:45:17;24.63;;;19.97;;
6671;SDS011;3372;48.690;12.362;2022-08-19T13:47:54;23.43;;;20.90;;
6671;SDS011;3372;48.690;12.362;2022-08-19T13:50:23;19.73;;;17.63;;
6671;SDS011;3372;48.690;12.362;2022-08-19T13:52:50;20.00;;;17.43;;
6671;SDS011;3372;48.690;12.362;2022-08-19T13:55:16;16.00;;;13.90;;
6671;SDS011;3372;48.690;12.362;2022-08-19T13:57:42;11.13;;;10.00;;
6671;SDS011;3372;48.690;12.362;2022-08-19T14:00:17;11.37;;;9.57;;
6671;SDS011;3372;48.690;12.362;2022-08-19T14:02:44;10.43;;;9.33;;
6671;SDS011;3372;48.690;12.362;2022-08-19T14:05:11;12.03;;;10.80;;
6671;SDS011;3372;48.690;12.362;2022-08-19T14:07:39;12.60;;;11.30;;
6671;SDS011;3372;48.690;12.362;2022-08-19T14:10:06;13.67;;;11.10;;
6671;SDS011;3372;48.690;12.362;2022-08-19T14:12:34;13.07;;;11.73;;
6671;SDS011;3372;48.690;12.362;2022-08-19T14:15:00;14.00;;;11.77;;
6671;SDS011;3372;48.690;12.362;2022-08-19T14:17:27;13.47;;;12.07;;
6671;SDS011;3372;48.690;12.362;2022-08-19T14:19:57;14.67;;;13.20;;
6671;SDS011;3372;48.690;12.362;2022-08-19T14:22:24;16.07;;;14.40;;
6671;SDS011;3372;48.690;12.362;2022-08-19T14:24:49;15.67;;;14.07;;
6671;SDS011;3372;48.690;12.362;2022-08-19T14:27:15;15.60;;;13.93;;
6671;SDS011;3372;48.690;12.362;2022-08-19T14:29:41;14.60;;;12.87;;
6671;SDS011;3372;48.690;12.362;2022-08-19T14:32:07;13.23;;;11.93;;
6671;SDS011;3372;48.690;12.362;2022-08-19T14:34:32;14.30;;;12.80;;
6671;SDS011;3372;48.690;12.362;2022-08-19T14:36:58;13.20;;;11.80;;
6671;SDS011;3372;48.690;12.362;2022-08-19T14:39:24;15.07;;;13.03;;
6671;SDS011;3372;48.690;12.362;2022-08-19T14:41:50;18.10;;;15.30;;
6671;SDS011;3372;48.690;12.362;2022-08-19T14:44:16;21.90;;;19.43;;
6671;SDS011;3372;48.690;12.362;2022-08-19T14:46:41;22.53;;;20.07;;
6671;SDS011;3372;48.690;12.362;2022-08-19T14:49:07;16.87;;;14.63;;
6671;SDS011;3372;48.690;12.362;2022-08-19T14:51:32;14.97;;;13.43;;